British Envoy — MNAN4 — position and weather

sailwx.info

Track history (hours):
 
Tides and Currents Weather Stations Pressure Air Temp Water Temp Dewpoint Dewpoint Depression Visibility Wind Speed Wind Dir Waves Ship Positions

British Envoy

Last reported at 2016-Jul-25 09:00 UTC. Time now 2016-Jul-25 20:08 UTC.
Position S 34°36' W 024°12'.

Length 184.2 m; beam 27.4 m; draft 11.3 m.

Type: Tanker. MMSI: 235011280.

Wind from 200 at 7 knots

Waves 0.5 meters (2 feet), 3 second period

Barometer 1030.8 mb
Air temperature 16.0 ° C
Visibility: greater than 5.4 NM
Dewpoint 12.4 ° C

Date/timePositionNaut miles runAvg speedWind from/ knotsBaromVisibWave heightAir tempDewpointWater temp
2016-Jul-25 09:00S 34°36' W 024°12'89 3.4 200 / 71030.8 5.4 0.516.012.4
2016-Jul-24 07:00S 33°48' W 025°42'   310 / 61029.610.8 1.010.5 6.2
2016-Jul-21 16:19S 30°22' E 031°05'1013.3
2016-Jul-21 15:34S 30°12' E 031°07'1312.9
2016-Jul-21 14:34S 29°59' E 031°08'8 7.9
2016-Jul-21 13:34S 29°53' E 031°03'1 1.1
2016-Jul-21 12:31S 29°53' E 031°02'0 0.0
2016-Jul-21 11:31S 29°53' E 031°02'0 0.0
2016-Jul-21 10:33S 29°53' E 031°02'0 0.0
2016-Jul-19 10:33S 29°53' E 031°02'6 6.1
2016-Jul-19 09:33S 29°49' E 031°06'6 6.2
2016-Jul-19 08:33S 29°47' E 031°13'1212.4
2016-Jul-19 07:33S 29°43' E 031°27'4414.5
2016-Jul-19 04:33S 29°16' E 032°06'1413.9
2016-Jul-19 03:33S 29°04' E 032°14'1313.3
2016-Jul-19 02:34S 28°51' E 032°11'2 0.1
2016-Jul-18 05:33S 28°52' E 032°08'7 6.8
2016-Jul-18 04:31S 28°59' E 032°08'18 8.9
2016-Jul-18 02:33S 29°16' E 032°09'1110.9
2016-Jul-18 01:33S 29°25' E 032°01'1110.9
2016-Jul-18 00:33S 29°34' E 031°55'1110.6
2016-Jul-17 23:33S 29°43' E 031°48'1110.6
2016-Jul-17 22:33S 29°52' E 031°41'1110.5
2016-Jul-17 21:33S 30°00' E 031°33'1010.5
2016-Jul-17 20:33S 30°09' E 031°27'1110.7
2016-Jul-17 19:33S 30°18' E 031°20'1110.8
2016-Jul-17 18:33S 30°26' E 031°13'1110.5
2016-Jul-17 17:32S 30°35' E 031°05'4011.2
2016-Jul-17 14:00S 31°06' E 030°36'   100 / 161027.9 5.4 2.019.015.619.0
Track history (hours):
 
Tides and Currents Weather Stations Pressure Air Temp Water Temp Dewpoint Dewpoint Depression Visibility Wind Speed Wind Dir Waves Ship Positions

British Envoy

Last reported at 2016-Jul-25 09:00 UTC. Time now 2016-Jul-25 20:08 UTC.
Position S 34°36' W 024°12'.

Length 184.2 m; beam 27.4 m; draft 11.3 m.

Type: Tanker. MMSI: 235011280.

Wind from 200 at 7 knots

Waves 0.5 meters (2 feet), 3 second period

Barometer 1030.8 mb
Air temperature 16.0 ° C
Visibility: greater than 5.4 NM
Dewpoint 12.4 ° C

Date/timePositionNaut miles runAvg speedWind from/ knotsBaromVisibWave heightAir tempDewpointWater temp
2016-Jul-25 09:00S 34°36' W 024°12'89 3.4 200 / 71030.8 5.4 0.516.012.4
2016-Jul-24 07:00S 33°48' W 025°42'   310 / 61029.610.8 1.010.5 6.2
2016-Jul-21 16:19S 30°22' E 031°05'1013.3
2016-Jul-21 15:34S 30°12' E 031°07'1312.9
2016-Jul-21 14:34S 29°59' E 031°08'8 7.9
2016-Jul-21 13:34S 29°53' E 031°03'1 1.1
2016-Jul-21 12:31S 29°53' E 031°02'0 0.0
2016-Jul-21 11:31S 29°53' E 031°02'0 0.0
2016-Jul-21 10:33S 29°53' E 031°02'0 0.0
2016-Jul-19 10:33S 29°53' E 031°02'6 6.1
2016-Jul-19 09:33S 29°49' E 031°06'6 6.2
2016-Jul-19 08:33S 29°47' E 031°13'1212.4
2016-Jul-19 07:33S 29°43' E 031°27'4414.5
2016-Jul-19 04:33S 29°16' E 032°06'1413.9
2016-Jul-19 03:33S 29°04' E 032°14'1313.3
2016-Jul-19 02:34S 28°51' E 032°11'2 0.1
2016-Jul-18 05:33S 28°52' E 032°08'7 6.8
2016-Jul-18 04:31S 28°59' E 032°08'18 8.9
2016-Jul-18 02:33S 29°16' E 032°09'1110.9
2016-Jul-18 01:33S 29°25' E 032°01'1110.9
2016-Jul-18 00:33S 29°34' E 031°55'1110.6
2016-Jul-17 23:33S 29°43' E 031°48'1110.6
2016-Jul-17 22:33S 29°52' E 031°41'1110.5
2016-Jul-17 21:33S 30°00' E 031°33'1010.5
2016-Jul-17 20:33S 30°09' E 031°27'1110.7
2016-Jul-17 19:33S 30°18' E 031°20'1110.8
2016-Jul-17 18:33S 30°26' E 031°13'1110.5
2016-Jul-17 17:32S 30°35' E 031°05'4011.2
2016-Jul-17 14:00S 31°06' E 030°36'   100 / 161027.9 5.4 2.019.015.619.0

Dump ship's entire track history